sensor_id;sensor_type;location;lat;lon;timestamp;P1;durP1;ratioP1;P2;durP2;ratioP2
46597;SDS011;32318;48.858;8.252;2023-05-07T00:01:44;13.73;;;2.17;;
46597;SDS011;32318;48.858;8.252;2023-05-07T00:09:44;5.35;;;2.38;;
46597;SDS011;32318;48.858;8.252;2023-05-07T00:17:45;4.68;;;2.10;;
46597;SDS011;32318;48.858;8.252;2023-05-07T00:25:45;4.78;;;2.42;;
46597;SDS011;32318;48.858;8.252;2023-05-07T00:33:45;10.52;;;2.38;;
46597;SDS011;32318;48.858;8.252;2023-05-07T00:41:46;7.43;;;2.58;;
46597;SDS011;32318;48.858;8.252;2023-05-07T00:49:47;7.85;;;2.80;;
46597;SDS011;32318;48.858;8.252;2023-05-07T00:57:47;14.65;;;3.05;;
46597;SDS011;32318;48.858;8.252;2023-05-07T01:05:47;7.47;;;2.70;;
46597;SDS011;32318;48.858;8.252;2023-05-07T01:13:49;8.18;;;2.47;;
46597;SDS011;32318;48.858;8.252;2023-05-07T01:21:50;5.78;;;2.10;;
46597;SDS011;32318;48.858;8.252;2023-05-07T01:29:51;5.72;;;2.47;;
46597;SDS011;32318;48.858;8.252;2023-05-07T01:37:51;3.72;;;2.50;;
46597;SDS011;32318;48.858;8.252;2023-05-07T01:45:53;10.75;;;2.50;;
46597;SDS011;32318;48.858;8.252;2023-05-07T01:53:54;5.88;;;2.60;;
46597;SDS011;32318;48.858;8.252;2023-05-07T02:01:54;7.35;;;3.00;;
46597;SDS011;32318;48.858;8.252;2023-05-07T02:09:54;13.38;;;3.00;;
46597;SDS011;32318;48.858;8.252;2023-05-07T02:17:58;4.60;;;2.50;;
46597;SDS011;32318;48.858;8.252;2023-05-07T02:26:00;8.93;;;2.75;;
46597;SDS011;32318;48.858;8.252;2023-05-07T02:34:00;6.15;;;2.50;;
46597;SDS011;32318;48.858;8.252;2023-05-07T02:42:00;13.13;;;3.47;;
46597;SDS011;32318;48.858;8.252;2023-05-07T02:50:01;9.32;;;3.40;;
46597;SDS011;32318;48.858;8.252;2023-05-07T02:58:02;3.63;;;2.72;;
46597;SDS011;32318;48.858;8.252;2023-05-07T03:06:02;6.55;;;3.20;;
46597;SDS011;32318;48.858;8.252;2023-05-07T03:14:03;4.78;;;2.80;;
46597;SDS011;32318;48.858;8.252;2023-05-07T03:22:03;8.32;;;2.88;;
46597;SDS011;32318;48.858;8.252;2023-05-07T03:30:03;6.15;;;2.42;;
46597;SDS011;32318;48.858;8.252;2023-05-07T03:38:04;9.82;;;2.83;;
46597;SDS011;32318;48.858;8.252;2023-05-07T03:46:05;5.13;;;2.80;;
46597;SDS011;32318;48.858;8.252;2023-05-07T03:54:05;7.80;;;2.78;;
46597;SDS011;32318;48.858;8.252;2023-05-07T04:02:05;4.38;;;3.17;;
46597;SDS011;32318;48.858;8.252;2023-05-07T04:10:05;5.75;;;3.00;;
46597;SDS011;32318;48.858;8.252;2023-05-07T04:18:06;6.67;;;3.47;;
46597;SDS011;32318;48.858;8.252;2023-05-07T04:26:06;11.57;;;3.30;;
46597;SDS011;32318;48.858;8.252;2023-05-07T04:34:07;9.73;;;3.88;;
46597;SDS011;32318;48.858;8.252;2023-05-07T04:42:07;7.63;;;3.78;;
46597;SDS011;32318;48.858;8.252;2023-05-07T04:50:09;8.80;;;3.60;;
46597;SDS011;32318;48.858;8.252;2023-05-07T04:58:09;10.98;;;3.20;;
46597;SDS011;32318;48.858;8.252;2023-05-07T05:06:09;9.10;;;3.78;;
46597;SDS011;32318;48.858;8.252;2023-05-07T05:14:10;9.18;;;4.38;;
46597;SDS011;32318;48.858;8.252;2023-05-07T05:22:10;11.95;;;3.22;;
46597;SDS011;32318;48.858;8.252;2023-05-07T05:30:10;9.93;;;3.28;;
46597;SDS011;32318;48.858;8.252;2023-05-07T05:38:11;5.60;;;3.50;;
46597;SDS011;32318;48.858;8.252;2023-05-07T05:46:11;11.80;;;4.10;;
46597;SDS011;32318;48.858;8.252;2023-05-07T05:54:12;12.52;;;3.83;;
46597;SDS011;32318;48.858;8.252;2023-05-07T06:02:12;5.57;;;3.05;;
46597;SDS011;32318;48.858;8.252;2023-05-07T06:10:12;8.05;;;3.38;;
46597;SDS011;32318;48.858;8.252;2023-05-07T06:18:12;4.53;;;2.75;;
46597;SDS011;32318;48.858;8.252;2023-05-07T06:26:13;5.72;;;3.08;;
46597;SDS011;32318;48.858;8.252;2023-05-07T06:34:13;7.15;;;3.15;;
46597;SDS011;32318;48.858;8.252;2023-05-07T06:42:16;6.63;;;2.58;;
46597;SDS011;32318;48.858;8.252;2023-05-07T06:50:17;6.10;;;3.15;;
46597;SDS011;32318;48.858;8.252;2023-05-07T06:58:17;10.00;;;3.28;;
46597;SDS011;32318;48.858;8.252;2023-05-07T07:06:17;7.53;;;2.90;;
46597;SDS011;32318;48.858;8.252;2023-05-07T07:14:17;8.50;;;3.10;;
46597;SDS011;32318;48.858;8.252;2023-05-07T07:22:18;7.85;;;3.10;;
46597;SDS011;32318;48.858;8.252;2023-05-07T07:30:18;10.48;;;3.88;;
46597;SDS011;32318;48.858;8.252;2023-05-07T07:38:18;7.38;;;4.47;;
46597;SDS011;32318;48.858;8.252;2023-05-07T07:46:19;6.13;;;3.67;;
46597;SDS011;32318;48.858;8.252;2023-05-07T07:54:20;7.30;;;3.95;;
46597;SDS011;32318;48.858;8.252;2023-05-07T08:02:20;5.97;;;4.47;;
46597;SDS011;32318;48.858;8.252;2023-05-07T08:10:21;8.70;;;4.60;;
46597;SDS011;32318;48.858;8.252;2023-05-07T08:18:21;9.25;;;4.35;;
46597;SDS011;32318;48.858;8.252;2023-05-07T08:26:23;8.43;;;4.15;;
46597;SDS011;32318;48.858;8.252;2023-05-07T08:34:23;6.72;;;4.30;;
46597;SDS011;32318;48.858;8.252;2023-05-07T08:42:23;8.52;;;4.22;;
46597;SDS011;32318;48.858;8.252;2023-05-07T08:50:24;8.45;;;4.30;;
46597;SDS011;32318;48.858;8.252;2023-05-07T08:58:25;14.70;;;4.47;;
46597;SDS011;32318;48.858;8.252;2023-05-07T09:06:25;7.93;;;4.68;;
46597;SDS011;32318;48.858;8.252;2023-05-07T09:14:26;5.78;;;3.15;;
46597;SDS011;32318;48.858;8.252;2023-05-07T09:22:26;7.75;;;3.30;;
46597;SDS011;32318;48.858;8.252;2023-05-07T09:30:31;6.75;;;3.08;;
46597;SDS011;32318;48.858;8.252;2023-05-07T09:38:52;9.27;;;4.20;;
46597;SDS011;32318;48.858;8.252;2023-05-07T09:47:19;7.55;;;3.25;;
46597;SDS011;32318;48.858;8.252;2023-05-07T09:55:20;9.52;;;3.58;;
46597;SDS011;32318;48.858;8.252;2023-05-07T10:03:20;8.83;;;3.63;;
46597;SDS011;32318;48.858;8.252;2023-05-07T10:11:22;8.25;;;4.28;;
46597;SDS011;32318;48.858;8.252;2023-05-07T10:19:23;9.85;;;3.58;;
46597;SDS011;32318;48.858;8.252;2023-05-07T10:27:23;8.25;;;3.60;;
46597;SDS011;32318;48.858;8.252;2023-05-07T10:35:25;7.72;;;2.72;;
46597;SDS011;32318;48.858;8.252;2023-05-07T10:43:47;11.37;;;3.00;;
46597;SDS011;32318;48.858;8.252;2023-05-07T10:51:53;6.55;;;3.55;;
46597;SDS011;32318;48.858;8.252;2023-05-07T11:08:41;6.30;;;3.10;;
46597;SDS011;32318;48.858;8.252;2023-05-07T11:17:00;6.55;;;2.90;;
46597;SDS011;32318;48.858;8.252;2023-05-07T11:25:02;4.80;;;2.63;;
46597;SDS011;32318;48.858;8.252;2023-05-07T11:33:03;11.48;;;3.17;;
46597;SDS011;32318;48.858;8.252;2023-05-07T11:41:05;6.40;;;2.72;;
46597;SDS011;32318;48.858;8.252;2023-05-07T11:49:08;6.95;;;3.72;;
46597;SDS011;32318;48.858;8.252;2023-05-07T11:57:14;7.47;;;2.72;;
46597;SDS011;32318;48.858;8.252;2023-05-07T12:05:15;5.18;;;2.50;;
46597;SDS011;32318;48.858;8.252;2023-05-07T12:13:19;9.43;;;2.55;;
46597;SDS011;32318;48.858;8.252;2023-05-07T12:21:23;7.88;;;2.85;;
46597;SDS011;32318;48.858;8.252;2023-05-07T12:29:24;6.97;;;3.05;;
46597;SDS011;32318;48.858;8.252;2023-05-07T12:37:25;6.82;;;2.42;;
46597;SDS011;32318;48.858;8.252;2023-05-07T12:45:26;8.80;;;2.75;;
46597;SDS011;32318;48.858;8.252;2023-05-07T12:53:26;9.77;;;2.35;;
46597;SDS011;32318;48.858;8.252;2023-05-07T13:01:28;9.98;;;2.80;;
46597;SDS011;32318;48.858;8.252;2023-05-07T13:09:31;5.18;;;2.88;;
46597;SDS011;32318;48.858;8.252;2023-05-07T13:17:37;15.60;;;8.30;;
46597;SDS011;32318;48.858;8.252;2023-05-07T13:25:37;13.40;;;5.72;;
46597;SDS011;32318;48.858;8.252;2023-05-07T13:33:37;8.95;;;4.82;;
46597;SDS011;32318;48.858;8.252;2023-05-07T13:41:40;19.35;;;8.18;;
46597;SDS011;32318;48.858;8.252;2023-05-07T13:49:41;20.25;;;9.65;;
46597;SDS011;32318;48.858;8.252;2023-05-07T13:57:41;10.20;;;5.53;;
46597;SDS011;32318;48.858;8.252;2023-05-07T14:05:41;7.85;;;2.78;;
46597;SDS011;32318;48.858;8.252;2023-05-07T14:13:42;4.13;;;2.42;;
46597;SDS011;32318;48.858;8.252;2023-05-07T14:21:42;7.30;;;2.08;;
46597;SDS011;32318;48.858;8.252;2023-05-07T14:29:50;7.55;;;2.38;;
46597;SDS011;32318;48.858;8.252;2023-05-07T14:37:51;12.02;;;3.00;;
46597;SDS011;32318;48.858;8.252;2023-05-07T14:45:51;4.38;;;1.15;;
46597;SDS011;32318;48.858;8.252;2023-05-07T14:53:52;2.20;;;1.40;;
46597;SDS011;32318;48.858;8.252;2023-05-07T15:01:52;3.60;;;1.50;;
46597;SDS011;32318;48.858;8.252;2023-05-07T15:09:52;6.20;;;2.08;;
46597;SDS011;32318;48.858;8.252;2023-05-07T15:17:53;4.05;;;1.70;;
46597;SDS011;32318;48.858;8.252;2023-05-07T15:25:54;17.85;;;8.68;;
46597;SDS011;32318;48.858;8.252;2023-05-07T15:33:54;14.43;;;7.90;;
46597;SDS011;32318;48.858;8.252;2023-05-07T15:41:58;4.78;;;2.72;;
46597;SDS011;32318;48.858;8.252;2023-05-07T15:49:58;29.73;;;13.40;;
46597;SDS011;32318;48.858;8.252;2023-05-07T15:58:07;25.80;;;11.82;;
46597;SDS011;32318;48.858;8.252;2023-05-07T16:06:10;25.52;;;11.50;;
46597;SDS011;32318;48.858;8.252;2023-05-07T16:14:37;7.88;;;3.90;;
46597;SDS011;32318;48.858;8.252;2023-05-07T16:31:41;8.80;;;3.28;;
46597;SDS011;32318;48.858;8.252;2023-05-07T16:47:44;10.07;;;4.07;;
46597;SDS011;32318;48.858;8.252;2023-05-07T16:55:47;6.75;;;2.92;;
46597;SDS011;32318;48.858;8.252;2023-05-07T17:03:47;11.07;;;3.17;;
46597;SDS011;32318;48.858;8.252;2023-05-07T17:11:48;5.60;;;2.38;;
46597;SDS011;32318;48.858;8.252;2023-05-07T17:19:48;7.57;;;3.63;;
46597;SDS011;32318;48.858;8.252;2023-05-07T17:27:48;8.77;;;3.60;;
46597;SDS011;32318;48.858;8.252;2023-05-07T17:35:48;7.15;;;3.38;;
46597;SDS011;32318;48.858;8.252;2023-05-07T17:43:51;5.93;;;2.88;;
46597;SDS011;32318;48.858;8.252;2023-05-07T17:51:52;12.45;;;3.15;;
46597;SDS011;32318;48.858;8.252;2023-05-07T17:59:52;9.65;;;2.63;;
46597;SDS011;32318;48.858;8.252;2023-05-07T18:07:53;15.70;;;3.92;;
46597;SDS011;32318;48.858;8.252;2023-05-07T18:15:53;7.07;;;2.85;;
46597;SDS011;32318;48.858;8.252;2023-05-07T18:23:53;9.52;;;3.42;;
46597;SDS011;32318;48.858;8.252;2023-05-07T18:31:56;10.13;;;3.38;;
46597;SDS011;32318;48.858;8.252;2023-05-07T18:40:14;11.50;;;3.67;;
46597;SDS011;32318;48.858;8.252;2023-05-07T18:48:17;11.57;;;3.53;;
46597;SDS011;32318;48.858;8.252;2023-05-07T18:56:19;6.38;;;3.17;;
46597;SDS011;32318;48.858;8.252;2023-05-07T19:04:20;8.45;;;4.28;;
46597;SDS011;32318;48.858;8.252;2023-05-07T19:12:21;9.20;;;3.20;;
46597;SDS011;32318;48.858;8.252;2023-05-07T19:20:21;7.30;;;3.13;;
46597;SDS011;32318;48.858;8.252;2023-05-07T19:28:22;20.70;;;3.97;;
46597;SDS011;32318;48.858;8.252;2023-05-07T19:36:45;7.78;;;3.70;;
46597;SDS011;32318;48.858;8.252;2023-05-07T19:45:05;7.20;;;3.80;;
46597;SDS011;32318;48.858;8.252;2023-05-07T19:53:05;10.57;;;4.90;;
46597;SDS011;32318;48.858;8.252;2023-05-07T20:01:06;12.15;;;5.15;;
46597;SDS011;32318;48.858;8.252;2023-05-07T20:09:06;8.13;;;4.88;;
46597;SDS011;32318;48.858;8.252;2023-05-07T20:17:11;10.50;;;5.60;;
46597;SDS011;32318;48.858;8.252;2023-05-07T20:25:11;15.10;;;6.65;;
46597;SDS011;32318;48.858;8.252;2023-05-07T20:33:14;15.20;;;4.93;;
46597;SDS011;32318;48.858;8.252;2023-05-07T20:41:15;11.47;;;6.30;;
46597;SDS011;32318;48.858;8.252;2023-05-07T20:49:16;25.05;;;5.90;;
46597;SDS011;32318;48.858;8.252;2023-05-07T20:57:17;13.00;;;6.28;;
46597;SDS011;32318;48.858;8.252;2023-05-07T21:05:18;12.75;;;6.95;;
46597;SDS011;32318;48.858;8.252;2023-05-07T21:13:19;14.05;;;5.85;;
46597;SDS011;32318;48.858;8.252;2023-05-07T21:21:19;11.65;;;6.63;;
46597;SDS011;32318;48.858;8.252;2023-05-07T21:29:19;12.93;;;6.35;;
46597;SDS011;32318;48.858;8.252;2023-05-07T21:37:21;9.23;;;5.68;;
46597;SDS011;32318;48.858;8.252;2023-05-07T21:45:21;10.10;;;5.93;;
46597;SDS011;32318;48.858;8.252;2023-05-07T21:53:21;19.50;;;8.00;;
46597;SDS011;32318;48.858;8.252;2023-05-07T22:01:21;17.13;;;8.05;;
46597;SDS011;32318;48.858;8.252;2023-05-07T22:09:22;18.77;;;8.32;;
46597;SDS011;32318;48.858;8.252;2023-05-07T22:17:22;16.58;;;8.60;;
46597;SDS011;32318;48.858;8.252;2023-05-07T22:25:23;15.55;;;7.80;;
46597;SDS011;32318;48.858;8.252;2023-05-07T22:33:24;15.77;;;8.80;;
46597;SDS011;32318;48.858;8.252;2023-05-07T22:41:24;15.65;;;8.85;;
46597;SDS011;32318;48.858;8.252;2023-05-07T22:49:24;20.35;;;10.48;;
46597;SDS011;32318;48.858;8.252;2023-05-07T22:57:24;26.15;;;11.88;;
46597;SDS011;32318;48.858;8.252;2023-05-07T23:05:25;24.70;;;12.63;;
46597;SDS011;32318;48.858;8.252;2023-05-07T23:13:25;25.33;;;11.25;;
46597;SDS011;32318;48.858;8.252;2023-05-07T23:21:25;24.33;;;12.30;;
46597;SDS011;32318;48.858;8.252;2023-05-07T23:29:26;29.60;;;11.68;;
46597;SDS011;32318;48.858;8.252;2023-05-07T23:37:26;23.63;;;10.57;;
46597;SDS011;32318;48.858;8.252;2023-05-07T23:45:26;17.33;;;10.38;;
46597;SDS011;32318;48.858;8.252;2023-05-07T23:53:27;21.20;;;10.15;;
